map of JGA home
JGA - Airport
Location
City:  Jamnagar, Gujarat, India
ICAO:VAJM
IATA:JGA

Details
Type:Airport (Aerodrome, Airfield)
Use:Military
Latitude:2227'56"N (22.465522)
Longitude:7000'45"E (70.012556)
Datum:WGS 1984
Elevation:69 ft (21 m)
Variation:0.51E (WMM2015v2 magnetic declination)
0.05 annual change
Runways:2
Longest:8242 × 148 ft (2512 × 45 m), paved

Time
Time Zone:UTC+5:30
Local Time:

Weather
TAF:VAJM 040930Z 0412/0424 03010KT 6000 FEW010 FEW250

Related Locations
Nearby:
Farthest:IPC: 12105 mi / 19481 km
Easter Island (Isla de Pascua, Rapa Nui) [Mataveri Intl], VS, CL

Find:

   beyond  
but within

Other Information
Maps:
NOTAMs:
Links:
Sources:

  
  • flag of India
  

Sectional Chart

Flight Planning
at skyvector.com

Satellite Image

Google Maps Satellite view

 

Copyright © 2004-2019 Karl L. Swartz. All rights reserved.
The Great Circle Mapper name and logo are trademarks of the Great Circle Mapper.
All other trademarks mentioned herein belong to their respective owners.
Please see credits for attibutions and further copyright information.

  Follow gcmap on Facebook Follow gcmap on Twitter GCmap on LinkedIn

hCard Microformat

Geo Microformat